createdAt,value
2023-04-01T00:01:27.171Z,999.80
2023-04-01T00:01:44.391Z,999.90
2023-04-01T00:02:15.586Z,999.80
2023-04-01T00:02:46.746Z,999.80
2023-04-01T00:03:17.752Z,1000.00
2023-04-01T00:03:48.811Z,1000.00
2023-04-01T00:04:36.717Z,1000.00
2023-04-01T00:05:28.787Z,1000.00
2023-04-01T00:05:52.507Z,1000.00
2023-04-01T00:06:29.184Z,999.80
2023-04-01T00:06:55.794Z,999.80
2023-04-01T00:07:25.670Z,999.80
2023-04-01T00:07:56.715Z,999.80
2023-04-01T00:08:27.644Z,1000.00
2023-04-01T00:09:05.127Z,1000.00
2023-04-01T00:09:30.441Z,999.69
2023-04-01T00:10:14.922Z,999.69
2023-04-01T00:10:32.785Z,1000.00
2023-04-01T00:11:30.346Z,1000.00
2023-04-01T00:24:42.260Z,999.90
2023-04-01T00:25:02.005Z,999.90
2023-04-01T00:25:40.830Z,999.90
2023-04-01T00:26:02.489Z,999.90
2023-04-01T00:26:33.293Z,999.80
2023-04-01T00:27:04.634Z,999.80
2023-04-01T00:27:43.244Z,999.80
2023-04-01T00:28:07.438Z,999.80
2023-04-01T00:28:38.171Z,999.69
2023-04-01T00:29:09.598Z,999.80
2023-04-01T00:29:39.768Z,999.80
2023-04-01T00:30:12.037Z,999.69
2023-04-01T00:30:47.019Z,999.69
2023-04-01T00:31:16.686Z,999.69
2023-04-01T00:31:43.842Z,999.69
2023-04-01T00:32:15.003Z,999.69
2023-04-01T00:33:10.627Z,999.69
2023-04-01T00:33:17.839Z,999.80
2023-04-01T00:33:48.719Z,999.80
2023-04-01T00:34:19.597Z,999.80
2023-04-01T00:34:57.783Z,999.80
2023-04-01T00:35:21.717Z,999.69
2023-04-01T00:35:52.271Z,999.69
2023-04-01T00:36:25.013Z,999.69
2023-04-01T00:36:54.848Z,999.69
2023-04-01T00:37:24.409Z,999.59
2023-04-01T00:38:37.329Z,999.59
2023-04-01T00:38:58.163Z,999.69
2023-04-01T00:39:29.494Z,999.59
2023-04-01T00:40:04.015Z,999.59
2023-04-01T00:40:31.326Z,999.69
2023-04-01T00:41:04.773Z,999.69
2023-04-01T00:41:36.955Z,999.69
2023-04-01T00:42:05.240Z,999.69
2023-04-01T00:42:37.678Z,999.80
2023-04-01T00:43:08.859Z,999.80
2023-04-01T00:43:36.126Z,999.90
2023-04-01T00:44:07.722Z,999.90
2023-04-01T00:44:38.718Z,999.59
2023-04-01T00:45:10.130Z,999.59
2023-04-01T00:45:41.425Z,999.59
2023-04-01T00:46:14.288Z,999.59
2023-04-01T00:46:43.948Z,999.59
2023-04-01T00:47:14.233Z,999.49
2023-04-01T00:47:45.413Z,999.49
2023-04-01T00:48:16.131Z,999.59
2023-04-01T00:48:45.923Z,999.59
2023-04-01T00:49:18.327Z,999.59
2023-04-01T00:50:07.226Z,999.59
2023-04-01T00:50:20.204Z,999.49
2023-04-01T00:50:51.172Z,999.49
2023-04-01T00:51:53.995Z,999.49
2023-04-01T00:52:24.966Z,999.49
2023-04-01T00:52:55.994Z,999.49
2023-04-01T00:53:26.039Z,999.69
2023-04-01T00:53:56.741Z,999.69
2023-04-01T00:54:27.197Z,999.69
2023-04-01T00:55:15.270Z,999.59
2023-04-01T00:55:28.821Z,999.59
2023-04-01T00:56:02.894Z,999.59
2023-04-01T00:56:30.676Z,999.49
2023-04-01T00:57:04.246Z,999.49
2023-04-01T00:57:34.734Z,999.59
2023-04-01T00:58:17.601Z,999.59
2023-04-01T00:58:37.141Z,999.59
2023-04-01T00:59:07.318Z,999.59
2023-04-01T00:59:37.488Z,999.59
2023-04-01T01:00:13.432Z,999.80
2023-04-01T01:00:42.286Z,999.80
2023-04-01T01:02:04.855Z,999.59
2023-04-01T01:03:13.078Z,999.59
2023-04-01T01:03:35.226Z,999.49
2023-04-01T01:04:06.429Z,999.49
2023-04-01T01:04:35.327Z,999.59
2023-04-01T01:05:06.574Z,999.59
2023-04-01T01:05:49.717Z,999.80
2023-04-01T01:06:08.086Z,999.69
2023-04-01T01:06:39.016Z,999.69
2023-04-01T01:07:11.313Z,999.80
2023-04-01T01:07:41.986Z,999.80
2023-04-01T01:08:13.087Z,999.80
2023-04-01T01:08:44.032Z,999.80
2023-04-01T01:09:15.411Z,999.49
2023-04-01T01:09:45.592Z,999.49
2023-04-01T01:10:18.554Z,999.49
2023-04-01T01:10:48.599Z,999.49
2023-04-01T01:11:18.657Z,999.69
2023-04-01T01:11:49.390Z,999.69
2023-04-01T01:12:20.818Z,999.90
2023-04-01T01:12:51.905Z,999.90
2023-04-01T01:13:23.349Z,999.80
2023-04-01T01:13:56.157Z,999.80
2023-04-01T01:14:25.301Z,999.69
2023-04-01T01:14:59.201Z,999.69
2023-04-01T01:15:27.755Z,999.49
2023-04-01T01:15:57.360Z,999.49
2023-04-01T01:16:33.993Z,999.69
2023-04-01T01:16:59.123Z,999.69
2023-04-01T01:17:49.150Z,999.59
2023-04-01T01:18:01.399Z,999.59
2023-04-01T01:18:32.184Z,999.59
2023-04-01T01:19:05.189Z,999.59
2023-04-01T01:19:54.573Z,999.59
2023-04-01T01:20:09.875Z,999.59
2023-04-01T01:20:38.313Z,999.69
2023-04-01T01:21:07.708Z,999.69
2023-04-01T01:21:38.463Z,999.69
2023-04-01T01:22:08.832Z,999.29
2023-04-01T01:22:40.085Z,999.29
2023-04-01T01:23:42.640Z,999.69
2023-04-01T01:24:13.632Z,999.59
2023-04-01T01:24:44.474Z,999.59
2023-04-01T01:25:17.246Z,999.59
2023-04-01T01:25:48.146Z,999.59
2023-04-01T01:26:17.569Z,999.59
2023-04-01T01:26:49.739Z,999.59
2023-04-01T01:27:19.618Z,999.80
2023-04-01T01:27:50.882Z,999.80
2023-04-01T01:28:21.257Z,999.59
2023-04-01T01:28:52.713Z,999.59
2023-04-01T01:29:29.774Z,999.69
2023-04-01T01:29:55.656Z,999.69
2023-04-01T01:30:28.074Z,999.69
2023-04-01T01:30:57.171Z,999.69
2023-04-01T01:31:29.250Z,999.69
2023-04-01T01:32:00.351Z,999.69
2023-04-01T01:32:29.344Z,999.59
2023-04-01T01:33:02.498Z,999.59
2023-04-01T01:33:31.479Z,999.69
2023-04-01T01:34:01.822Z,999.69
2023-04-01T01:34:33.513Z,999.49
2023-04-01T01:35:21.485Z,999.80
2023-04-01T01:35:35.916Z,999.80
2023-04-01T01:36:07.528Z,999.80
2023-04-01T01:36:37.747Z,999.69
2023-04-01T01:37:09.283Z,999.80
2023-04-01T01:37:39.909Z,999.80
2023-04-01T01:38:11.581Z,999.49
2023-04-01T01:38:41.512Z,999.49
2023-04-01T01:39:30.221Z,999.59
2023-04-01T01:39:43.293Z,999.59
2023-04-01T01:40:15.017Z,999.49
2023-04-01T01:40:46.230Z,999.49
2023-04-01T01:41:17.321Z,999.49
2023-04-01T01:41:48.069Z,999.49
2023-04-01T01:42:18.982Z,999.49
2023-04-01T01:42:50.389Z,999.49
2023-04-01T01:43:20.629Z,999.49
2023-04-01T01:43:52.787Z,999.49
2023-04-01T01:44:23.082Z,999.59
2023-04-01T01:44:53.388Z,999.59
2023-04-01T01:45:25.527Z,999.59
2023-04-01T01:45:56.507Z,999.59
2023-04-01T01:46:28.097Z,999.59
2023-04-01T01:46:58.435Z,999.59
2023-04-01T01:47:29.443Z,999.69
2023-04-01T01:48:19.286Z,999.59
2023-04-01T01:48:30.905Z,999.59
2023-04-01T01:49:02.065Z,999.59
2023-04-01T01:49:32.266Z,999.59
2023-04-01T01:50:04.386Z,999.59
2023-04-01T01:50:42.237Z,999.59
2023-04-01T01:51:13.903Z,999.59
2023-04-01T01:51:37.517Z,999.69
2023-04-01T01:52:08.098Z,999.69
2023-04-01T01:52:39.300Z,999.59
2023-04-01T01:53:09.813Z,999.39
2023-04-01T01:53:40.580Z,999.39
2023-04-01T01:54:11.718Z,999.80
2023-04-01T01:54:43.007Z,999.80
2023-04-01T01:55:14.449Z,999.69
2023-04-01T01:55:48.352Z,999.69
2023-04-01T01:56:17.195Z,999.59
2023-04-01T01:56:47.697Z,999.59
2023-04-01T01:57:35.256Z,999.80
2023-04-01T01:57:50.062Z,999.80
2023-04-01T01:58:21.339Z,999.80
2023-04-01T01:58:50.828Z,999.80
2023-04-01T01:59:21.513Z,999.69
2023-04-01T01:59:57.208Z,999.69
2023-04-01T02:01:26.634Z,999.59
2023-04-01T02:01:57.372Z,999.59
2023-04-01T02:02:28.482Z,999.69
2023-04-01T02:03:02.095Z,999.69
2023-04-01T02:03:29.596Z,999.69
2023-04-01T02:04:01.882Z,999.69
2023-04-01T02:04:33.137Z,999.80
2023-04-01T02:05:05.584Z,999.80
2023-04-01T02:05:35.477Z,999.69
2023-04-01T02:06:04.083Z,999.69
2023-04-01T02:06:35.754Z,999.69
2023-04-01T02:07:09.368Z,999.69
2023-04-01T02:07:40.670Z,999.69
2023-04-01T02:08:08.510Z,999.49
2023-04-01T02:08:38.897Z,999.49
2023-04-01T02:09:10.103Z,999.69
2023-04-01T02:09:42.807Z,999.69
2023-04-01T02:10:16.305Z,999.69
2023-04-01T02:10:43.267Z,999.69
2023-04-01T02:11:15.310Z,999.59
2023-04-01T02:11:48.157Z,999.59
2023-04-01T02:12:16.876Z,999.80
2023-04-01T02:12:47.443Z,999.80
2023-04-01T02:13:18.583Z,999.59
2023-04-01T02:13:49.047Z,999.59
2023-04-01T02:14:26.237Z,999.59
2023-04-01T02:14:53.563Z,999.59
2023-04-01T02:15:23.268Z,999.59
2023-04-01T02:15:53.494Z,999.59
2023-04-01T02:16:24.945Z,999.69
2023-04-01T02:16:56.228Z,999.69
2023-04-01T02:17:52.535Z,999.80
2023-04-01T02:17:58.690Z,999.80
2023-04-01T02:18:28.395Z,999.59
2023-04-01T02:19:00.208Z,999.59
2023-04-01T02:19:30.393Z,999.80
2023-04-01T02:20:01.069Z,999.80
2023-04-01T02:20:32.609Z,999.49
2023-04-01T02:21:03.460Z,999.49
2023-04-01T02:21:34.045Z,999.59
2023-04-01T02:22:05.414Z,999.59
2023-04-01T02:22:36.732Z,999.49
2023-04-01T02:23:08.809Z,999.49
2023-04-01T02:23:38.423Z,999.80
2023-04-01T02:24:10.016Z,999.39
2023-04-01T02:24:40.116Z,999.39
2023-04-01T02:25:11.938Z,999.39
2023-04-01T02:25:42.302Z,999.39
2023-04-01T02:26:13.780Z,999.39
2023-04-01T02:26:44.976Z,999.39
2023-04-01T02:27:16.628Z,999.39
2023-04-01T02:28:18.479Z,999.59
2023-04-01T02:28:48.792Z,999.59
2023-04-01T02:29:19.929Z,999.49
2023-04-01T02:29:50.682Z,999.49
2023-04-01T02:30:22.807Z,999.69
2023-04-01T02:30:52.230Z,999.69
2023-04-01T02:31:34.144Z,999.49
2023-04-01T02:31:58.575Z,999.49
2023-04-01T02:32:25.826Z,999.59
2023-04-01T02:32:58.167Z,999.59
2023-04-01T02:33:29.490Z,999.59
2023-04-01T02:34:00.635Z,999.59
2023-04-01T02:34:29.455Z,999.59
2023-04-01T02:35:00.520Z,999.59
2023-04-01T02:35:31.646Z,999.39
2023-04-01T02:36:02.697Z,999.39
2023-04-01T02:36:33.120Z,999.59
2023-04-01T02:37:04.347Z,999.59
2023-04-01T02:38:07.478Z,999.59
2023-04-01T02:38:38.384Z,999.59
2023-04-01T02:39:09.243Z,999.49
2023-04-01T02:39:39.311Z,999.49
2023-04-01T02:40:10.827Z,999.49
2023-04-01T02:40:41.459Z,999.49
2023-04-01T02:41:12.976Z,999.29
2023-04-01T02:41:43.196Z,999.29
2023-04-01T02:42:14.793Z,999.59
2023-04-01T02:42:46.036Z,999.59
2023-04-01T02:43:18.205Z,999.49
2023-04-01T02:43:47.925Z,999.49
2023-04-01T02:44:18.928Z,999.49
2023-04-01T02:44:49.979Z,999.49
2023-04-01T02:45:20.964Z,999.59
2023-04-01T02:45:51.430Z,999.59
2023-04-01T02:46:22.227Z,999.49
2023-04-01T02:46:53.232Z,999.49
2023-04-01T02:47:24.267Z,999.49
2023-04-01T02:47:56.414Z,999.49
2023-04-01T02:48:29.479Z,999.29
2023-04-01T02:48:58.204Z,999.29
2023-04-01T02:49:28.794Z,999.49
2023-04-01T02:49:59.745Z,999.49
2023-04-01T02:50:30.250Z,999.49
2023-04-01T02:51:01.569Z,999.49
2023-04-01T02:51:32.226Z,999.49
2023-04-01T02:52:03.840Z,999.49
2023-04-01T02:52:34.399Z,999.59
2023-04-01T02:53:06.183Z,999.59
2023-04-01T02:53:36.781Z,999.69
2023-04-01T02:54:21.462Z,999.59
2023-04-01T02:54:38.930Z,999.59
2023-04-01T02:55:10.625Z,999.80
2023-04-01T02:56:11.657Z,999.59
2023-04-01T02:56:42.365Z,999.59
2023-04-01T02:57:13.595Z,999.59
2023-04-01T02:57:44.663Z,999.59
2023-04-01T02:58:16.413Z,999.59
2023-04-01T02:59:19.038Z,999.69
2023-04-01T02:59:49.180Z,999.69
2023-04-01T03:00:22.073Z,999.69
2023-04-01T03:00:52.375Z,999.69
2023-04-01T03:01:21.969Z,999.59
2023-04-01T03:01:52.886Z,999.59
2023-04-01T03:02:23.560Z,999.80
2023-04-01T03:02:55.506Z,999.80
2023-04-01T03:03:26.970Z,999.59
2023-04-01T03:03:58.287Z,999.59
2023-04-01T03:04:29.455Z,999.69
2023-04-01T03:04:58.989Z,999.69
2023-04-01T03:05:46.778Z,999.59
2023-04-01T03:06:00.942Z,999.59
2023-04-01T03:06:31.409Z,999.69
2023-04-01T03:07:02.390Z,999.69
2023-04-01T03:07:33.626Z,999.49
2023-04-01T03:08:04.494Z,999.49
2023-04-01T03:08:35.784Z,999.69
2023-04-01T03:09:07.010Z,999.69
2023-04-01T03:09:37.918Z,999.59
2023-04-01T03:10:10.006Z,999.59
2023-04-01T03:10:40.310Z,999.59
2023-04-01T03:11:11.090Z,999.59
2023-04-01T03:11:42.966Z,999.59
2023-04-01T03:12:12.456Z,999.69
2023-04-01T03:12:43.868Z,999.69
2023-04-01T03:13:14.451Z,999.59
2023-04-01T03:13:45.690Z,999.59
2023-04-01T03:14:33.566Z,999.69
2023-04-01T03:14:48.016Z,999.69
2023-04-01T03:15:19.363Z,999.59
2023-04-01T03:15:49.864Z,999.59
2023-04-01T03:16:21.060Z,999.69
2023-04-01T03:16:51.678Z,999.69
2023-04-01T03:17:22.215Z,999.59
2023-04-01T03:17:53.880Z,999.59
2023-04-01T03:18:24.996Z,999.59
2023-04-01T03:18:56.116Z,999.59
2023-04-01T03:19:27.082Z,999.59
2023-04-01T03:19:59.206Z,999.59
2023-04-01T03:20:29.455Z,999.69
2023-04-01T03:21:00.238Z,999.69
2023-04-01T03:21:30.649Z,999.69
2023-04-01T03:22:01.494Z,999.69
2023-04-01T03:22:32.537Z,999.80
2023-04-01T03:23:03.743Z,999.80
2023-04-01T03:23:34.757Z,999.69
2023-04-01T03:24:06.152Z,999.69
2023-04-01T03:24:36.480Z,999.69
2023-04-01T03:25:09.376Z,999.69
2023-04-01T03:25:39.472Z,999.69
2023-04-01T03:26:10.068Z,999.59
2023-04-01T03:26:40.327Z,999.59
2023-04-01T03:27:11.442Z,999.80
2023-04-01T03:28:13.496Z,999.49
2023-04-01T03:28:44.898Z,999.49
2023-04-01T03:29:15.763Z,999.59
2023-04-01T03:29:46.431Z,999.59
2023-04-01T03:30:18.851Z,999.69
2023-04-01T03:30:49.325Z,999.69
2023-04-01T03:40:10.049Z,999.69
2023-04-01T03:40:39.575Z,999.90
2023-04-01T03:41:08.276Z,999.90
2023-04-01T03:41:41.405Z,999.59
2023-04-01T03:42:11.220Z,999.80
2023-04-01T03:42:42.435Z,999.80
2023-04-01T03:43:13.801Z,999.59
2023-04-01T03:43:43.543Z,999.59
2023-04-01T03:44:17.845Z,999.69
2023-04-01T03:44:43.913Z,999.69
2023-04-01T03:45:16.254Z,999.69
2023-04-01T03:45:47.673Z,999.69
2023-04-01T03:46:17.112Z,999.59
2023-04-01T03:46:48.466Z,999.59
2023-04-01T03:47:18.863Z,999.80
2023-04-01T03:47:50.194Z,999.80
2023-04-01T03:48:22.016Z,999.80
2023-04-01T03:48:55.128Z,999.80
2023-04-01T03:49:22.603Z,999.80
2023-04-01T03:49:54.670Z,999.80
2023-04-01T03:50:27.270Z,999.69
2023-04-01T03:50:57.158Z,999.69
2023-04-01T03:51:28.710Z,999.90
2023-04-01T03:51:59.171Z,999.90
2023-04-01T03:53:00.082Z,999.80
2023-04-01T03:53:31.540Z,999.69
2023-04-01T03:54:02.993Z,999.69
2023-04-01T03:54:33.495Z,999.80
2023-04-01T03:55:04.736Z,999.80
2023-04-01T03:55:35.732Z,999.80
2023-04-01T03:56:06.332Z,999.80
2023-04-01T03:56:37.782Z,999.80
2023-04-01T03:57:09.004Z,999.80
2023-04-01T03:57:38.932Z,1000.00
2023-04-01T03:58:10.460Z,999.90
2023-04-01T03:58:41.551Z,999.90
2023-04-01T03:59:12.332Z,999.80
2023-04-01T03:59:42.460Z,999.80
2023-04-01T04:00:13.757Z,999.90
2023-04-01T04:00:44.780Z,999.90
2023-04-01T04:01:15.412Z,1000.10
2023-04-01T04:01:47.597Z,1000.10
2023-04-01T04:02:18.135Z,999.90
2023-04-01T04:02:49.907Z,999.90
2023-04-01T04:04:06.651Z,999.80
2023-04-01T04:04:22.415Z,999.69
2023-04-01T04:04:53.393Z,999.69
2023-04-01T04:05:24.418Z,999.90
2023-04-01T04:06:04.179Z,999.90
2023-04-01T04:06:25.756Z,999.80
2023-04-01T04:06:56.678Z,999.80
2023-04-01T04:07:27.352Z,999.80
2023-04-01T04:07:58.756Z,999.80
2023-04-01T04:08:31.815Z,999.90
2023-04-01T04:09:01.903Z,999.90
2023-04-01T04:09:31.327Z,999.69
2023-04-01T04:10:02.357Z,999.69
2023-04-01T04:10:33.614Z,999.90
2023-04-01T04:11:04.877Z,999.90
2023-04-01T04:11:35.549Z,1000.00
2023-04-01T04:12:06.634Z,1000.00
2023-04-01T05:41:18.201Z,1000.30
2023-04-01T05:41:31.710Z,1000.10
2023-04-01T05:42:01.635Z,1000.10
2023-04-01T05:42:32.510Z,1000.30
2023-04-01T05:43:04.130Z,1000.30
2023-04-01T05:43:33.952Z,1000.30
2023-04-01T05:44:06.068Z,1000.30
2023-04-01T05:44:36.197Z,1000.10
2023-04-01T05:45:18.205Z,1000.10
2023-04-01T05:45:52.578Z,1000.20
2023-04-01T05:46:09.039Z,1000.30
2023-04-01T05:46:40.043Z,1000.30
2023-04-01T05:47:11.019Z,1000.30
2023-04-01T05:47:59.031Z,1000.30
2023-04-01T05:48:14.182Z,1000.30
2023-04-01T05:48:44.045Z,1000.30
2023-04-01T05:49:15.054Z,1000.30
2023-04-01T05:49:45.812Z,1000.30
2023-04-01T05:50:17.137Z,1000.20
2023-04-01T05:50:47.904Z,1000.20
2023-04-01T05:51:18.736Z,1000.51
2023-04-01T05:51:49.933Z,1000.51
2023-04-01T05:52:21.157Z,1000.20
2023-04-01T05:53:09.473Z,1000.20
2023-04-01T05:53:23.321Z,1000.20
2023-04-01T05:53:54.142Z,1000.20
2023-04-01T05:54:25.417Z,1000.30
2023-04-01T05:54:56.203Z,1000.30
2023-04-01T05:55:27.682Z,1000.20
2023-04-01T05:55:58.900Z,1000.20
2023-04-01T05:56:29.450Z,1000.10
2023-04-01T05:56:59.903Z,1000.10
2023-04-01T05:57:31.066Z,1000.20
2023-04-01T05:58:02.189Z,1000.20
2023-04-01T05:58:33.299Z,1000.20
2023-04-01T05:59:04.048Z,1000.20
2023-04-01T06:00:19.274Z,1000.20
2023-04-01T06:00:38.636Z,1000.30
2023-04-01T06:01:14.177Z,1000.20
2023-04-01T06:02:00.020Z,1000.20
2023-04-01T06:02:11.983Z,1000.51
2023-04-01T06:02:42.563Z,1000.51
2023-04-01T06:03:13.645Z,1000.10
2023-04-01T06:03:43.915Z,1000.10
2023-04-01T06:04:14.884Z,1000.10
2023-04-01T06:04:47.937Z,1000.10
2023-04-01T06:05:20.202Z,1000.30
2023-04-01T06:05:49.045Z,1000.30
2023-04-01T06:06:20.721Z,1000.41
2023-04-01T06:06:49.839Z,1000.41
2023-04-01T06:07:21.138Z,1000.51
2023-04-01T06:08:01.087Z,1000.51
2023-04-01T06:08:22.614Z,1000.30
2023-04-01T06:09:23.717Z,1000.30
2023-04-01T06:09:57.201Z,1000.30
2023-04-01T06:10:39.831Z,1000.30
2023-04-01T06:11:20.966Z,1000.30
2023-04-01T06:11:30.322Z,1000.61
2023-04-01T06:12:00.246Z,1000.61
2023-04-01T06:12:31.450Z,1000.30
2023-04-01T06:13:44.884Z,1000.30
2023-04-01T06:14:03.233Z,1000.30
2023-04-01T06:14:35.519Z,1000.61
2023-04-01T06:15:15.193Z,1000.61
2023-04-01T06:16:35.551Z,1000.51
2023-04-01T06:16:50.283Z,1000.41
2023-04-01T06:17:10.176Z,1000.51
2023-04-01T06:17:41.122Z,1000.51
2023-04-01T06:18:11.839Z,1000.51
2023-04-01T06:18:42.730Z,1000.51
2023-04-01T06:19:13.503Z,1000.61
2023-04-01T06:20:01.611Z,1000.61
2023-04-01T06:20:15.818Z,1000.41
2023-04-01T06:20:48.382Z,1000.41
2023-04-01T06:21:20.553Z,1000.41
2023-04-01T06:21:50.309Z,1000.41
2023-04-01T06:22:20.930Z,1000.10
2023-04-01T06:22:54.574Z,1000.10
2023-04-01T06:23:23.401Z,1000.20
2023-04-01T06:24:18.508Z,1000.20
2023-04-01T06:24:24.088Z,1000.51
2023-04-01T06:25:00.894Z,1000.51
2023-04-01T06:25:27.936Z,1000.41
2023-04-01T06:25:59.386Z,1000.41
2023-04-01T06:26:29.411Z,1000.61
2023-04-01T06:27:00.689Z,1000.61
2023-04-01T06:27:30.785Z,1000.51
2023-04-01T06:28:01.061Z,1000.51
2023-04-01T06:28:31.566Z,1000.51
2023-04-01T06:29:20.466Z,1000.41
2023-04-01T06:29:34.533Z,1000.41
2023-04-01T06:30:38.831Z,1000.41
2023-04-01T06:31:08.603Z,1000.41
2023-04-01T06:31:39.089Z,1000.61
2023-04-01T06:32:09.334Z,1000.41
2023-04-01T06:32:39.835Z,1000.41
2023-04-01T06:33:46.723Z,1000.51
2023-04-01T06:34:12.648Z,1000.41
2023-04-01T06:34:43.977Z,1000.41
2023-04-01T06:35:15.662Z,1000.51
2023-04-01T06:35:45.318Z,1000.51
2023-04-01T06:36:16.405Z,1000.51
2023-04-01T06:36:48.873Z,1000.51
2023-04-01T06:37:49.004Z,1000.41
2023-04-01T06:38:35.412Z,1000.51
2023-04-01T06:39:00.505Z,1000.51
2023-04-01T06:39:22.668Z,1000.30
2023-04-01T06:39:53.159Z,1000.30
2023-04-01T06:40:24.095Z,1000.61
2023-04-01T06:40:55.562Z,1000.61
2023-04-01T06:41:27.414Z,1000.51
2023-04-01T06:42:19.393Z,1000.51
2023-04-01T06:42:28.544Z,1000.61
2023-04-01T06:42:59.431Z,1000.61
2023-04-01T06:43:34.147Z,1000.41
2023-04-01T06:44:08.803Z,1000.41
2023-04-01T06:44:34.396Z,1000.51
2023-04-01T06:45:06.060Z,1000.51
2023-04-01T06:45:42.532Z,1000.41
2023-04-01T06:46:06.218Z,1000.41
2023-04-01T06:46:59.549Z,1000.41
2023-04-01T06:47:09.915Z,1000.61
2023-04-01T06:47:39.076Z,1000.61
2023-04-01T06:48:12.733Z,1000.51
2023-04-01T06:48:40.172Z,1000.51
2023-04-01T06:49:11.518Z,1000.51
2023-04-01T06:49:42.673Z,1000.51
2023-04-01T06:50:15.331Z,1000.41
2023-04-01T06:50:45.429Z,1000.41
2023-04-01T06:51:16.556Z,1000.61
2023-04-01T06:51:46.394Z,1000.61
2023-04-01T06:52:17.614Z,1000.61
2023-04-01T06:52:49.007Z,1000.61
2023-04-01T06:53:19.879Z,1000.30
2023-04-01T06:53:50.683Z,1000.30
2023-04-01T06:54:21.268Z,1000.51
2023-04-01T06:54:52.539Z,1000.51
2023-04-01T06:55:24.966Z,1000.61
2023-04-01T06:55:55.350Z,1000.61
2023-04-01T06:56:26.027Z,1000.61
2023-04-01T06:56:56.366Z,1000.61
2023-04-01T06:57:27.678Z,1000.51
2023-04-01T06:57:58.718Z,1000.51
2023-04-01T06:59:00.723Z,1000.41
2023-04-01T06:59:31.540Z,1000.51
2023-04-01T07:00:04.161Z,1000.51
2023-04-01T07:00:34.475Z,1000.41
2023-04-01T07:01:05.973Z,1000.41
2023-04-01T07:01:35.893Z,1000.51
2023-04-01T07:02:07.062Z,1000.51
2023-04-01T07:02:37.511Z,1000.61
2023-04-01T07:03:09.059Z,1000.41
2023-04-01T07:03:40.042Z,1000.41
2023-04-01T07:04:11.228Z,1000.51
2023-04-01T07:04:41.378Z,1000.51
2023-04-01T07:05:12.731Z,1000.71
2023-04-01T07:05:44.622Z,1000.71
2023-04-01T07:06:15.633Z,1000.51
2023-04-01T07:07:17.548Z,1000.51
2023-04-01T07:07:47.537Z,1000.51
2023-04-01T07:08:19.212Z,1000.61
2023-04-01T07:08:50.245Z,1000.61
2023-04-01T07:09:20.422Z,1000.51
2023-04-01T07:09:51.197Z,1000.51
2023-04-01T07:10:23.536Z,1000.41
2023-04-01T07:10:54.660Z,1000.41
2023-04-01T07:11:26.369Z,1000.61
2023-04-01T07:11:56.604Z,1000.61
2023-04-01T07:12:26.614Z,1000.61
2023-04-01T07:12:58.940Z,1000.61
2023-04-01T07:13:29.984Z,1000.71
2023-04-01T07:13:59.506Z,1000.71
2023-04-01T07:14:30.736Z,1000.61
2023-04-01T07:15:33.027Z,1000.81
2023-04-01T07:16:05.141Z,1000.81
2023-04-01T07:16:35.957Z,1000.61
2023-04-01T07:17:06.241Z,1000.61
2023-04-01T07:17:37.693Z,1000.71
2023-04-01T07:18:07.704Z,1000.71
2023-04-01T07:18:39.315Z,1000.51
2023-04-01T07:19:09.771Z,1000.71
2023-04-01T07:19:41.222Z,1000.71
2023-04-01T07:20:12.132Z,1000.61
2023-04-01T07:20:42.686Z,1000.61
2023-04-01T07:21:14.889Z,1000.61
2023-04-01T07:21:46.236Z,1000.61
2023-04-01T07:22:16.194Z,1000.51
2023-04-01T07:22:46.644Z,1000.51
2023-04-01T07:23:17.726Z,1000.61
2023-04-01T07:23:48.965Z,1000.61
2023-04-01T07:24:19.887Z,1000.51
2023-04-01T07:24:50.704Z,1000.51
2023-04-01T07:25:21.270Z,1000.51
2023-04-01T07:25:52.781Z,1000.51
2023-04-01T07:26:24.829Z,1000.71
2023-04-01T07:26:56.302Z,1000.71
2023-04-01T07:27:26.352Z,1000.51
2023-04-01T07:27:57.098Z,1000.51
2023-04-01T07:28:27.665Z,1000.81
2023-04-01T07:28:59.490Z,1000.81
2023-04-01T07:29:29.597Z,1000.61
2023-04-01T07:30:01.200Z,1000.61
2023-04-01T07:30:32.068Z,1000.51
2023-04-01T07:31:02.300Z,1000.51
2023-04-01T07:31:34.227Z,1000.61
2023-04-01T07:32:06.080Z,1000.61
2023-04-01T07:32:36.689Z,1000.71
2023-04-01T07:33:07.125Z,1000.71
2023-04-01T07:33:37.652Z,1000.41
2023-04-01T07:34:09.017Z,1000.61
2023-04-01T07:34:39.453Z,1000.61
2023-04-01T07:35:11.114Z,1000.61
2023-04-01T07:35:41.985Z,1000.61
2023-04-01T07:36:12.632Z,1000.91
2023-04-01T07:37:01.177Z,1000.91
2023-04-01T07:37:16.494Z,1000.71
2023-04-01T07:37:46.751Z,1000.71
2023-04-01T07:38:17.348Z,1000.71
2023-04-01T07:38:47.871Z,1000.71
2023-04-01T07:39:19.270Z,1000.81
2023-04-01T07:39:50.058Z,1000.81
2023-04-01T07:40:38.327Z,1000.61
2023-04-01T07:40:51.775Z,1000.61
2023-04-01T07:41:22.344Z,1000.71
2023-04-01T07:41:54.930Z,1000.71
2023-04-01T07:42:26.300Z,1000.81
2023-04-01T07:42:56.674Z,1000.81
2023-04-01T07:43:26.925Z,1000.81
2023-04-01T07:43:57.740Z,1000.81
2023-04-01T07:44:29.622Z,1000.81
2023-04-01T07:44:59.810Z,1000.81
2023-04-01T07:45:31.010Z,1000.81
2023-04-01T07:46:01.560Z,1000.81
2023-04-01T07:46:32.603Z,1000.91
2023-04-01T07:47:04.853Z,1000.91
2023-04-01T07:47:36.803Z,1000.81
2023-04-01T07:48:07.488Z,1000.81
2023-04-01T07:48:37.456Z,1000.71
2023-04-01T07:49:27.630Z,1000.81
2023-04-01T07:49:38.869Z,1000.81
2023-04-01T07:50:10.358Z,1001.01
2023-04-01T07:50:40.899Z,1001.01
2023-04-01T07:51:11.505Z,1000.91
2023-04-01T07:51:42.603Z,1000.91
2023-04-01T07:52:13.458Z,1000.91
2023-04-01T07:52:46.632Z,1000.91
2023-04-01T07:53:16.795Z,1001.01
2023-04-01T07:53:47.301Z,1001.01
2023-04-01T07:54:17.887Z,1000.81
2023-04-01T07:54:49.148Z,1000.81
2023-04-01T07:55:19.831Z,1001.01
2023-04-01T07:55:50.555Z,1001.01
2023-04-01T07:56:52.787Z,1000.81
2023-04-01T07:57:24.220Z,1001.08
2023-04-01T07:57:55.401Z,1001.08
2023-04-01T07:58:28.425Z,1000.71
2023-04-01T07:58:56.982Z,1000.71
2023-04-01T07:59:27.816Z,1000.81
2023-04-01T07:59:59.463Z,1000.81
2023-04-01T08:00:30.191Z,1000.61
2023-04-01T08:01:00.779Z,1000.61
2023-04-01T08:01:31.499Z,1000.91
2023-04-01T08:02:02.478Z,1000.91
2023-04-01T08:02:33.822Z,1000.91
2023-04-01T08:03:06.105Z,1000.91
2023-04-01T08:03:37.079Z,1000.91
2023-04-01T08:04:07.729Z,1000.91
2023-04-01T08:04:38.527Z,1000.91
2023-04-01T08:05:09.349Z,1000.71
2023-04-01T08:05:39.747Z,1000.71
2023-04-01T08:06:11.150Z,1000.91
2023-04-01T08:06:42.117Z,1000.91
2023-04-01T08:07:12.783Z,1000.81
2023-04-01T08:07:43.932Z,1000.81
2023-04-01T08:08:16.065Z,1000.91
2023-04-01T08:08:46.757Z,1000.91
2023-04-01T08:09:17.704Z,1001.01
2023-04-01T08:09:48.652Z,1001.01
2023-04-01T08:10:20.186Z,1001.08
2023-04-01T08:10:50.194Z,1001.08
2023-04-01T08:11:20.986Z,1000.91
2023-04-01T08:11:52.356Z,1000.91
2023-04-01T08:12:24.629Z,1000.81
2023-04-01T08:13:28.499Z,1000.81
2023-04-01T08:14:00.296Z,1000.81
2023-04-01T08:14:30.218Z,1000.81
2023-04-01T08:15:03.882Z,1000.81
2023-04-01T08:15:31.250Z,1001.01
2023-04-01T08:16:20.489Z,1000.81
2023-04-01T08:16:33.072Z,1000.81
2023-04-01T08:17:03.700Z,1000.81
2023-04-01T08:17:35.306Z,1000.81
2023-04-01T08:18:05.820Z,1000.81
2023-04-01T08:18:38.735Z,1000.71
2023-04-01T08:19:10.084Z,1000.71
2023-04-01T08:19:41.683Z,1000.81
2023-04-01T08:20:16.000Z,1000.81
2023-04-01T08:20:44.272Z,1000.81
2023-04-01T08:21:12.857Z,1000.81
2023-04-01T08:21:43.715Z,1000.81
2023-04-01T08:22:13.726Z,1000.91
2023-04-01T08:22:45.643Z,1000.91
2023-04-01T08:23:45.644Z,1000.81
2023-04-01T08:24:17.324Z,1000.91
2023-04-01T08:25:08.968Z,1000.91
2023-04-01T08:25:22.704Z,1000.91
2023-04-01T08:25:52.294Z,1000.91
2023-04-01T08:26:22.302Z,1001.01
2023-04-01T08:26:53.323Z,1001.01
2023-04-01T08:27:24.655Z,1000.91